Modling, Austria
Current Conditions -  °F | °C
As of 3:20 AM on Monday 24 Nov 2014 (Local Time) from LOWW Reporting Station
Few Clouds Few Clouds  
Wind Chill: 30°   Ceiling: Unl
Heat Index: 37°   Visibility: 4mi
Dew Point: 36°   Wind: 12mph
Humidity: 93%   Direction: 130°SE
Pressure: 30.3"   Gusts: NA
Location:  48.09°N, 16.28°E
Report Text: LOWW 240120Z 13010KT 7000 FEW022 03/02 Q1026 BECMG 4000 BR
Loading
Personal Weather Stations






























Interactive Weather Map New forecast layout! Learn more

10-Day Weather Forecast

Advertisements
Track Severe Weather on mobile